Time,TemperatureF,DewpointF,PressureIn,WindDirection,WindDirectionDegrees,WindSpeedMPH,WindSpeedGustMPH,Humidity,HourlyPrecipIn,Conditions,Clouds,dailyrainin,SoftwareType,DateUTC
2013-09-04 00:01:00,60.8,50.1,29.32,West,270,0.0,1.6,68,-99.99,,,-99.99,WSDL version 342,2013-09-04 04:01:00,
2013-09-04 00:02:00,60.7,50.1,29.32,West,270,0.4,1.6,68,-99.99,,,-99.99,WSDL version 342,2013-09-04 04:02:00,
2013-09-04 00:04:00,60.7,50.1,29.32,West,270,0.4,2.0,68,-99.99,,,-99.99,WSDL version 342,2013-09-04 04:04:00,
2013-09-04 00:06:00,60.6,50.2,29.32,West,270,1.5,2.5,69,-99.99,,,-99.99,WSDL version 342,2013-09-04 04:06:00,
2013-09-04 00:11:00,60.6,50.5,29.29,West,270,2.1,2.7,70,-99.99,,,-99.99,WSDL version 342,2013-09-04 04:11:00,
2013-09-04 00:16:00,60.5,51.0,29.29,West,270,2.0,2.7,71,-99.99,,,-99.99,WSDL version 342,2013-09-04 04:16:00,
2013-09-04 00:17:00,60.4,51.0,29.29,West,270,2.1,2.7,71,-99.99,,,-99.99,WSDL version 342,2013-09-04 04:17:00,
2013-09-04 00:22:00,60.4,51.5,29.29,West,270,2.2,2.7,73,-99.99,,,-99.99,WSDL version 342,2013-09-04 04:22:00,
2013-09-04 00:27:00,60.3,51.6,29.32,West,270,1.9,2.9,73,-99.99,,,-99.99,WSDL version 342,2013-09-04 04:27:00,
2013-09-04 00:32:00,60.3,52.1,29.32,WNW,290,2.5,3.4,75,-99.99,,,-99.99,WSDL version 342,2013-09-04 04:32:00,
2013-09-04 00:37:00,60.3,52.7,29.32,WNW,293,2.5,3.4,77,-99.99,,,-99.99,WSDL version 342,2013-09-04 04:37:00,
2013-09-04 00:42:00,60.3,53.0,29.32,WNW,293,2.5,3.4,77,-99.99,,,-99.99,WSDL version 342,2013-09-04 04:42:00,
2013-09-04 00:47:00,60.3,53.3,29.32,WNW,293,2.5,3.8,78,-99.99,,,-99.99,WSDL version 342,2013-09-04 04:47:00,
2013-09-04 00:52:00,60.3,53.4,29.32,WNW,293,2.5,3.8,78,-99.99,,,-99.99,WSDL version 342,2013-09-04 04:52:00,
2013-09-04 00:57:00,60.3,53.6,29.32,WNW,289,2.6,3.6,78,-99.99,,,-99.99,WSDL version 342,2013-09-04 04:57:00,
2013-09-04 01:02:00,60.1,53.3,29.32,West,276,2.2,3.4,78,-99.99,,,-99.99,WSDL version 342,2013-09-04 05:02:00,
2013-09-04 01:07:00,60.1,53.5,29.32,WNW,293,2.4,3.4,79,-99.99,,,-99.99,WSDL version 342,2013-09-04 05:07:00,
2013-09-04 01:12:00,60.1,53.6,29.32,WNW,293,2.5,3.4,79,-99.99,,,-99.99,WSDL version 342,2013-09-04 05:12:00,
2013-09-04 01:17:00,60.1,53.6,29.32,WNW,293,2.5,3.4,79,-99.99,,,-99.99,WSDL version 342,2013-09-04 05:17:00,
2013-09-04 01:22:00,60.1,53.6,29.32,WNW,293,2.2,3.1,79,-99.99,,,-99.99,WSDL version 342,2013-09-04 05:22:00,
2013-09-04 01:27:00,60.1,53.6,29.32,West,280,2.2,2.9,79,-99.99,,,-99.99,WSDL version 342,2013-09-04 05:27:00,
2013-09-04 01:32:00,59.9,53.0,29.32,WNW,296,2.1,2.9,78,-99.99,,,-99.99,WSDL version 342,2013-09-04 05:32:00,
2013-09-04 01:37:00,59.9,53.1,29.32,WNW,288,0.3,2.9,78,-99.99,,,-99.99,WSDL version 342,2013-09-04 05:37:00,
2013-09-04 01:42:00,59.7,52.9,29.32,West,270,0.0,2.9,78,-99.99,,,-99.99,WSDL version 342,2013-09-04 05:42:00,
2013-09-04 01:47:00,59.6,52.8,29.32,WSW,251,0.0,0.0,78,-99.99,,,-99.99,WSDL version 342,2013-09-04 05:47:00,
2013-09-04 01:52:00,59.5,52.7,29.32,West,270,0.0,2.2,78,-99.99,,,-99.99,WSDL version 342,2013-09-04 05:52:00,
2013-09-04 01:57:00,59.5,52.7,29.35,West,270,1.6,2.5,78,-99.99,,,-99.99,WSDL version 342,2013-09-04 05:57:00,
2013-09-04 02:02:00,59.4,52.9,29.35,West,270,0.0,2.5,79,-99.99,,,-99.99,WSDL version 342,2013-09-04 06:02:00,
2013-09-04 02:08:00,59.4,52.9,29.35,West,270,0.0,0.0,79,-99.99,,,-99.99,WSDL version 342,2013-09-04 06:08:00,
2013-09-04 02:13:00,59.2,52.7,29.35,West,270,0.0,0.0,79,-99.99,,,-99.99,WSDL version 342,2013-09-04 06:13:00,
2013-09-04 02:18:00,59.2,52.7,29.35,WNW,293,0.0,0.0,79,-99.99,,,-99.99,WSDL version 342,2013-09-04 06:18:00,
2013-09-04 02:24:00,59.1,53.0,29.35,WSW,248,0.0,0.0,80,-99.99,,,-99.99,WSDL version 342,2013-09-04 06:24:00,
2013-09-04 02:29:00,59.0,52.8,29.35,West,270,0.0,0.0,80,-99.99,,,-99.99,WSDL version 342,2013-09-04 06:29:00,
2013-09-04 02:34:00,59.0,53.2,29.35,West,270,0.0,0.0,81,-99.99,,,-99.99,WSDL version 342,2013-09-04 06:34:00,
2013-09-04 02:39:00,59.0,53.2,29.38,WNW,293,0.0,0.0,81,-99.99,,,-99.99,WSDL version 342,2013-09-04 06:39:00,
2013-09-04 02:44:00,59.0,53.3,29.38,WNW,293,0.0,0.0,82,-99.99,,,-99.99,WSDL version 342,2013-09-04 06:44:00,
2013-09-04 02:49:00,58.8,53.4,29.38,West,270,0.0,0.0,82,-99.99,,,-99.99,WSDL version 342,2013-09-04 06:49:00,
2013-09-04 02:54:00,58.8,53.4,29.38,West,270,0.0,0.0,82,-99.99,,,-99.99,WSDL version 342,2013-09-04 06:54:00,
2013-09-04 02:59:00,58.8,53.4,29.38,WSW,257,0.0,0.0,82,-99.99,,,-99.99,WSDL version 342,2013-09-04 06:59:00,
2013-09-04 03:04:00,58.5,53.1,29.38,WSW,248,0.0,0.0,82,-99.99,,,-99.99,WSDL version 342,2013-09-04 07:04:00,
2013-09-04 03:09:00,58.5,53.1,29.38,WSW,248,0.0,0.0,82,-99.99,,,-99.99,WSDL version 342,2013-09-04 07:09:00,
2013-09-04 03:14:00,58.5,53.3,29.38,WSW,248,0.0,0.0,83,-99.99,,,-99.99,WSDL version 342,2013-09-04 07:14:00,
2013-09-04 03:19:00,58.5,53.4,29.38,WSW,248,0.0,0.0,83,-99.99,,,-99.99,WSDL version 342,2013-09-04 07:19:00,
2013-09-04 03:24:00,58.3,53.3,29.38,WSW,248,0.0,0.0,83,-99.99,,,-99.99,WSDL version 342,2013-09-04 07:24:00,
2013-09-04 03:29:00,58.3,53.3,29.38,West,263,0.0,0.0,83,-99.99,,,-99.99,WSDL version 342,2013-09-04 07:29:00,
2013-09-04 03:34:00,58.2,53.2,29.38,WNW,293,0.0,0.0,83,-99.99,,,-99.99,WSDL version 342,2013-09-04 07:34:00,
2013-09-04 03:39:00,58.1,53.1,29.38,WNW,293,0.0,0.0,83,-99.99,,,-99.99,WSDL version 342,2013-09-04 07:39:00,
2013-09-04 03:44:00,58.1,53.1,29.38,WNW,293,0.0,0.0,83,-99.99,,,-99.99,WSDL version 342,2013-09-04 07:44:00,
2013-09-04 03:49:00,58.1,53.1,29.38,WNW,293,0.0,0.0,83,-99.99,,,-99.99,WSDL version 342,2013-09-04 07:49:00,
2013-09-04 03:54:00,57.9,53.0,29.38,WNW,293,0.0,0.0,84,-99.99,,,-99.99,WSDL version 342,2013-09-04 07:54:00,
2013-09-04 03:59:00,57.9,53.3,29.38,WNW,293,0.0,0.0,84,-99.99,,,-99.99,WSDL version 342,2013-09-04 07:59:00,
2013-09-04 04:04:00,57.9,53.2,29.38,WNW,293,0.0,0.0,84,-99.99,,,-99.99,WSDL version 342,2013-09-04 08:04:00,
2013-09-04 04:09:00,57.7,53.1,29.38,WNW,293,0.0,0.0,84,-99.99,,,-99.99,WSDL version 342,2013-09-04 08:09:00,
2013-09-04 04:14:00,57.7,53.0,29.38,WNW,293,0.0,0.0,84,-99.99,,,-99.99,WSDL version 342,2013-09-04 08:14:00,
2013-09-04 04:19:00,57.6,53.1,29.38,WNW,293,0.0,0.0,86,-99.99,,,-99.99,WSDL version 342,2013-09-04 08:19:00,
2013-09-04 04:24:00,57.6,53.3,29.38,West,278,0.0,0.0,86,-99.99,,,-99.99,WSDL version 342,2013-09-04 08:24:00,
2013-09-04 04:29:00,57.5,53.2,29.38,West,270,0.0,0.0,86,-99.99,,,-99.99,WSDL version 342,2013-09-04 08:29:00,
2013-09-04 04:34:00,57.4,53.4,29.38,West,270,0.0,0.0,87,-99.99,,,-99.99,WSDL version 342,2013-09-04 08:34:00,
2013-09-04 04:39:00,57.4,53.4,29.38,WNW,293,0.0,0.0,87,-99.99,,,-99.99,WSDL version 342,2013-09-04 08:39:00,
2013-09-04 04:44:00,57.4,53.6,29.38,West,260,0.0,0.0,88,-99.99,,,-99.99,WSDL version 342,2013-09-04 08:44:00,
2013-09-04 04:49:00,57.6,54.0,29.38,West,270,0.0,0.0,88,-99.99,,,-99.99,WSDL version 342,2013-09-04 08:49:00,
2013-09-04 04:55:00,57.4,53.8,29.38,West,270,0.0,0.0,88,-99.99,,,-99.99,WSDL version 342,2013-09-04 08:55:00,
2013-09-04 05:00:00,57.4,53.8,29.38,WNW,283,0.0,2.7,88,-99.99,,,-99.99,WSDL version 342,2013-09-04 09:00:00,
2013-09-04 05:07:00,57.6,54.3,29.38,West,274,0.6,2.7,89,-99.99,,,-99.99,WSDL version 342,2013-09-04 09:07:00,
2013-09-04 05:12:00,57.6,54.6,29.38,WNW,293,0.5,2.7,90,-99.99,,,-99.99,WSDL version 342,2013-09-04 09:12:00,
2013-09-04 05:17:00,57.7,54.8,29.38,WSW,251,0.0,2.7,90,-99.99,,,-99.99,WSDL version 342,2013-09-04 09:17:00,
2013-09-04 05:22:00,57.7,54.8,29.38,WSW,251,0.0,2.5,90,-99.99,,,-99.99,WSDL version 342,2013-09-04 09:22:00,
2013-09-04 05:27:00,57.6,54.7,29.41,WNW,293,0.0,2.5,90,-99.99,,,-99.99,WSDL version 342,2013-09-04 09:27:00,
2013-09-04 05:33:00,57.6,54.7,29.41,WNW,293,0.0,2.0,90,-99.99,,,-99.99,WSDL version 342,2013-09-04 09:33:00,
2013-09-04 05:38:00,57.7,55.2,29.41,West,270,0.3,2.0,91,-99.99,,,-99.99,WSDL version 342,2013-09-04 09:38:00,
2013-09-04 05:43:00,57.7,55.2,29.41,WNW,289,1.2,3.1,91,-99.99,,,-99.99,WSDL version 342,2013-09-04 09:43:00,
2013-09-04 05:48:00,57.7,55.2,29.41,WNW,293,0.0,3.1,91,-99.99,,,-99.99,WSDL version 342,2013-09-04 09:48:00,
2013-09-04 05:53:00,57.7,55.3,29.41,WNW,283,0.0,0.0,92,-99.99,,,-99.99,WSDL version 342,2013-09-04 09:53:00,
2013-09-04 05:58:00,57.7,55.5,29.41,WNW,289,0.0,0.0,92,-99.99,,,-99.99,WSDL version 342,2013-09-04 09:58:00,
2013-09-04 06:03:00,57.7,55.5,29.41,WNW,286,0.0,0.0,92,-99.99,,,-99.99,WSDL version 342,2013-09-04 10:03:00,
2013-09-04 06:08:00,57.7,55.5,29.41,WNW,301,0.0,0.0,92,-99.99,,,-99.99,WSDL version 342,2013-09-04 10:08:00,
2013-09-04 06:13:00,57.7,55.5,29.41,WNW,296,0.4,2.2,92,-99.99,,,-99.99,WSDL version 342,2013-09-04 10:13:00,
2013-09-04 06:18:00,57.7,55.5,29.41,West,270,0.0,2.2,92,-99.99,,,-99.99,WSDL version 342,2013-09-04 10:18:00,
2013-09-04 06:23:00,57.6,55.3,29.44,WNW,293,0.0,0.0,92,-99.99,,,-99.99,WSDL version 342,2013-09-04 10:23:00,
2013-09-04 06:28:00,57.6,55.3,29.44,NW,321,0.0,1.3,92,-99.99,,,-99.99,WSDL version 342,2013-09-04 10:28:00,
2013-09-04 06:33:00,57.6,55.3,29.44,NW,308,0.0,1.3,92,-99.99,,,-99.99,WSDL version 342,2013-09-04 10:33:00,
2013-09-04 06:38:00,57.6,55.3,29.44,WNW,293,0.0,0.0,92,-99.99,,,-99.99,WSDL version 342,2013-09-04 10:38:00,
2013-09-04 06:43:00,57.6,55.5,29.44,WNW,295,0.0,0.0,93,-99.99,,,-99.99,WSDL version 342,2013-09-04 10:43:00,
2013-09-04 06:48:00,57.6,55.7,29.44,West,279,0.0,0.0,93,-99.99,,,-99.99,WSDL version 342,2013-09-04 10:48:00,
2013-09-04 06:53:00,57.6,55.7,29.44,WSW,257,0.0,1.1,93,-99.99,,,-99.99,WSDL version 342,2013-09-04 10:53:00,
2013-09-04 06:58:00,57.6,55.7,29.44,West,278,0.3,2.5,93,-99.99,,,-99.99,WSDL version 342,2013-09-04 10:58:00,
2013-09-04 07:03:00,57.6,55.8,29.44,WNW,293,2.2,3.6,94,-99.99,,,-99.99,WSDL version 342,2013-09-04 11:03:00,
2013-09-04 07:08:00,57.7,56.2,29.44,WNW,293,0.0,3.6,94,-99.99,,,-99.99,WSDL version 342,2013-09-04 11:08:00,
2013-09-04 07:13:00,57.7,56.2,29.44,WNW,293,1.1,2.9,94,-99.99,,,-99.99,WSDL version 342,2013-09-04 11:13:00,
2013-09-04 07:18:00,57.7,56.2,29.44,WNW,293,0.0,2.9,94,-99.99,,,-99.99,WSDL version 342,2013-09-04 11:18:00,
2013-09-04 07:23:00,57.8,56.2,29.44,West,266,0.0,0.0,94,-99.99,,,-99.99,WSDL version 342,2013-09-04 11:23:00,
2013-09-04 07:28:00,57.9,56.3,29.44,WNW,293,0.0,0.0,94,-99.99,,,-99.99,WSDL version 342,2013-09-04 11:28:00,
2013-09-04 07:33:00,57.9,56.3,29.44,WNW,300,0.0,0.0,94,-99.99,,,-99.99,WSDL version 342,2013-09-04 11:33:00,
2013-09-04 07:38:00,57.9,56.3,29.44,West,274,0.0,1.1,94,-99.99,,,-99.99,WSDL version 342,2013-09-04 11:38:00,
2013-09-04 07:43:00,58.0,56.4,29.44,WNW,293,0.0,1.1,94,-99.99,,,-99.99,WSDL version 342,2013-09-04 11:43:00,
2013-09-04 07:48:00,58.2,56.6,29.44,West,274,0.0,0.0,94,-99.99,,,-99.99,WSDL version 342,2013-09-04 11:48:00,
2013-09-04 07:53:00,58.4,57.0,29.44,WNW,301,0.0,2.0,96,-99.99,,,-99.99,WSDL version 342,2013-09-04 11:53:00,
2013-09-04 07:58:00,58.5,57.3,29.44,West,279,1.8,3.6,96,-99.99,,,-99.99,WSDL version 342,2013-09-04 11:58:00,
2013-09-04 08:03:00,58.8,57.5,29.44,WNW,293,0.0,3.6,96,-99.99,,,-99.99,WSDL version 342,2013-09-04 12:03:00,
2013-09-04 08:08:00,58.9,57.6,29.47,West,281,0.6,3.4,96,-99.99,,,-99.99,WSDL version 342,2013-09-04 12:08:00,
2013-09-04 08:13:00,59.3,58.0,29.47,NW,321,0.9,4.3,96,-99.99,,,-99.99,WSDL version 342,2013-09-04 12:13:00,
2013-09-04 08:18:00,59.5,58.3,29.47,NW,312,0.4,4.3,96,-99.99,,,-99.99,WSDL version 342,2013-09-04 12:18:00,
2013-09-04 08:23:00,59.8,58.5,29.47,WNW,296,2.2,4.0,96,-99.99,,,-99.99,WSDL version 342,2013-09-04 12:23:00,
2013-09-04 08:28:00,60.2,58.9,29.44,West,280,3.0,6.5,96,-99.99,,,-99.99,WSDL version 342,2013-09-04 12:28:00,
2013-09-04 08:33:00,60.4,59.2,29.44,WNW,288,0.4,6.5,96,-99.99,,,-99.99,WSDL version 342,2013-09-04 12:33:00,
2013-09-04 08:38:00,60.7,59.2,29.44,SW,233,2.5,4.3,94,-99.99,,,-99.99,WSDL version 342,2013-09-04 12:38:00,
2013-09-04 08:43:00,61.1,59.2,29.44,WNW,286,2.3,4.3,93,-99.99,,,-99.99,WSDL version 342,2013-09-04 12:43:00,
2013-09-04 08:49:00,61.4,59.0,29.44,NW,305,1.9,4.0,91,-99.99,,,-99.99,WSDL version 342,2013-09-04 12:49:00,
2013-09-04 08:54:00,61.7,58.5,29.44,WNW,286,1.2,4.0,88,-99.99,,,-99.99,WSDL version 342,2013-09-04 12:54:00,
2013-09-04 08:59:00,62.2,57.4,29.44,WNW,293,2.3,6.3,84,-99.99,,,-99.99,WSDL version 342,2013-09-04 12:59:00,
2013-09-04 09:04:00,62.4,55.4,29.44,WNW,284,2.6,6.3,75,-99.99,,,-99.99,WSDL version 342,2013-09-04 13:04:00,
2013-09-04 09:09:00,62.8,53.2,29.47,South,176,2.7,5.6,68,-99.99,,,-99.99,WSDL version 342,2013-09-04 13:09:00,
2013-09-04 09:14:00,63.1,51.8,29.47,SSW,206,2.5,4.7,66,-99.99,,,-99.99,WSDL version 342,2013-09-04 13:14:00,
2013-09-04 09:19:00,63.4,50.1,29.47,NW,305,2.1,6.0,62,-99.99,,,-99.99,WSDL version 342,2013-09-04 13:19:00,
2013-09-04 09:24:00,63.6,49.9,29.47,WNW,293,2.5,6.0,59,-99.99,,,-99.99,WSDL version 342,2013-09-04 13:24:00,
2013-09-04 09:29:00,64.0,48.9,29.47,WNW,283,2.4,4.9,56,-99.99,,,-99.99,WSDL version 342,2013-09-04 13:29:00,
2013-09-04 09:34:00,64.3,47.2,29.47,West,259,2.3,5.4,53,-99.99,,,-99.99,WSDL version 342,2013-09-04 13:34:00,
2013-09-04 09:39:00,64.5,45.6,29.47,NNW,330,2.5,5.4,50,-99.99,,,-99.99,WSDL version 342,2013-09-04 13:39:00,
2013-09-04 09:44:00,64.7,45.5,29.47,NNW,329,2.3,4.0,48,-99.99,,,-99.99,WSDL version 342,2013-09-04 13:44:00,
2013-09-04 09:49:00,64.9,44.3,29.47,West,270,2.7,5.6,46,-99.99,,,-99.99,WSDL version 342,2013-09-04 13:49:00,
2013-09-04 09:54:00,65.1,44.0,29.47,NNW,328,2.2,5.6,47,-99.99,,,-99.99,WSDL version 342,2013-09-04 13:54:00,
2013-09-04 09:59:00,65.4,45.7,29.47,WSW,255,1.8,5.4,48,-99.99,,,-99.99,WSDL version 342,2013-09-04 13:59:00,
2013-09-04 10:04:00,65.6,43.5,29.47,NW,323,2.3,4.9,45,-99.99,,,-99.99,WSDL version 342,2013-09-04 14:04:00,
2013-09-04 10:09:00,65.8,44.5,29.47,NNW,334,1.2,4.9,46,-99.99,,,-99.99,WSDL version 342,2013-09-04 14:09:00,
2013-09-04 10:15:00,66.0,44.4,29.47,NNE,14,1.9,3.6,44,-99.99,,,-99.99,WSDL version 342,2013-09-04 14:15:00,
2013-09-04 10:20:00,66.2,43.6,29.47,NW,318,1.5,3.6,44,-99.99,,,-99.99,WSDL version 342,2013-09-04 14:20:00,
2013-09-04 10:25:00,66.5,43.8,29.44,West,270,2.7,3.6,44,-99.99,,,-99.99,WSDL version 342,2013-09-04 14:25:00,
2013-09-04 10:30:00,67.2,44.5,29.44,NW,321,2.3,3.8,44,-99.99,,,-99.99,WSDL version 342,2013-09-04 14:30:00,
2013-09-04 10:35:00,67.4,42.7,29.44,WSW,238,2.7,8.1,36,-99.99,,,-99.99,WSDL version 342,2013-09-04 14:35:00,
2013-09-04 10:40:00,67.6,39.5,29.47,NW,315,3.2,8.1,36,-99.99,,,-99.99,WSDL version 342,2013-09-04 14:40:00,
2013-09-04 10:45:00,67.7,39.8,29.47,WSW,254,3.0,5.8,35,-99.99,,,-99.99,WSDL version 342,2013-09-04 14:45:00,
2013-09-04 10:50:00,68.2,39.5,29.47,South,184,2.1,5.4,35,-99.99,,,-99.99,WSDL version 342,2013-09-04 14:50:00,
2013-09-04 10:55:00,68.5,38.9,29.44,West,276,2.2,5.4,34,-99.99,,,-99.99,WSDL version 342,2013-09-04 14:55:00,
2013-09-04 11:00:00,68.9,39.4,29.44,SSW,203,2.9,5.4,33,-99.99,,,-99.99,WSDL version 342,2013-09-04 15:00:00,
2013-09-04 11:05:00,69.2,38.7,29.44,West,278,2.2,4.9,33,-99.99,,,-99.99,WSDL version 342,2013-09-04 15:05:00,
2013-09-04 11:10:00,69.6,39.3,29.44,ESE,116,1.8,5.6,33,-99.99,,,-99.99,WSDL version 342,2013-09-04 15:10:00,
2013-09-04 11:15:00,70.0,39.0,29.44,West,276,2.3,6.3,32,-99.99,,,-99.99,WSDL version 342,2013-09-04 15:15:00,
2013-09-04 11:20:00,70.3,38.7,29.44,SW,236,2.2,6.3,32,-99.99,,,-99.99,WSDL version 342,2013-09-04 15:20:00,
2013-09-04 11:25:00,70.5,36.3,29.44,WNW,283,2.0,6.3,29,-99.99,,,-99.99,WSDL version 342,2013-09-04 15:25:00,
2013-09-04 11:30:00,70.9,36.4,29.44,SE,131,3.1,6.7,29,-99.99,,,-99.99,WSDL version 342,2013-09-04 15:30:00,
2013-09-04 11:35:00,71.2,37.9,29.44,WSW,241,2.4,6.7,28,-99.99,,,-99.99,WSDL version 342,2013-09-04 15:35:00,
2013-09-04 11:41:00,71.7,37.5,29.44,NW,319,2.4,3.8,28,-99.99,,,-99.99,WSDL version 342,2013-09-04 15:41:00,
2013-09-04 11:46:00,72.1,38.5,29.44,NW,307,2.5,4.3,30,-99.99,,,-99.99,WSDL version 342,2013-09-04 15:46:00,
2013-09-04 11:51:00,72.1,34.9,29.44,West,260,3.0,4.0,25,-99.99,,,-99.99,WSDL version 342,2013-09-04 15:51:00,
2013-09-04 11:56:00,72.3,35.5,29.41,NW,315,2.8,5.4,26,-99.99,,,-99.99,WSDL version 342,2013-09-04 15:56:00,
2013-09-04 12:01:00,72.9,35.5,29.41,SW,215,2.0,5.4,25,-99.99,,,-99.99,WSDL version 342,2013-09-04 16:01:00,
2013-09-04 12:06:00,73.5,36.1,29.41,WNW,285,2.7,5.6,24,-99.99,,,-99.99,WSDL version 342,2013-09-04 16:06:00,
2013-09-04 12:11:00,73.5,35.2,29.44,West,259,3.1,5.6,26,-99.99,,,-99.99,WSDL version 342,2013-09-04 16:11:00,
2013-09-04 12:16:00,73.8,35.3,29.44,NNE,19,2.7,4.3,24,-99.99,,,-99.99,WSDL version 342,2013-09-04 16:16:00,
2013-09-04 12:22:00,74.0,34.5,29.44,SE,131,3.4,5.4,24,-99.99,,,-99.99,WSDL version 342,2013-09-04 16:22:00,
2013-09-04 12:27:00,74.7,36.6,29.44,South,180,2.4,5.8,25,-99.99,,,-99.99,WSDL version 342,2013-09-04 16:27:00,
2013-09-04 12:32:00,74.8,33.7,29.44,South,191,2.9,5.8,22,-99.99,,,-99.99,WSDL version 342,2013-09-04 16:32:00,
2013-09-04 12:37:00,75.0,34.3,29.44,SW,229,2.8,5.4,23,-99.99,,,-99.99,WSDL version 342,2013-09-04 16:37:00,
2013-09-04 12:42:00,75.4,33.9,29.44,SW,228,2.7,6.0,22,-99.99,,,-99.99,WSDL version 342,2013-09-04 16:42:00,
2013-09-04 12:47:00,75.8,34.0,29.44,SW,222,4.2,7.4,21,-99.99,,,-99.99,WSDL version 342,2013-09-04 16:47:00,
2013-09-04 12:52:00,75.8,33.4,29.44,NW,308,2.9,7.4,22,-99.99,,,-99.99,WSDL version 342,2013-09-04 16:52:00,
2013-09-04 12:57:00,76.3,34.4,29.41,SW,222,1.7,6.0,22,-99.99,,,-99.99,WSDL version 342,2013-09-04 16:57:00,
2013-09-04 13:02:00,77.2,35.2,29.41,West,278,2.7,6.0,21,-99.99,,,-99.99,WSDL version 342,2013-09-04 17:02:00,
2013-09-04 13:07:00,77.7,34.7,29.41,WSW,245,2.8,6.3,21,-99.99,,,-99.99,WSDL version 342,2013-09-04 17:07:00,
2013-09-04 13:12:00,77.8,34.4,29.44,WSW,239,3.3,6.3,20,-99.99,,,-99.99,WSDL version 342,2013-09-04 17:12:00,
2013-09-04 13:17:00,77.4,33.2,29.44,WSW,245,3.6,6.3,20,-99.99,,,-99.99,WSDL version 342,2013-09-04 17:17:00,
2013-09-04 13:22:00,77.4,33.2,29.44,NW,312,3.8,6.5,20,-99.99,,,-99.99,WSDL version 342,2013-09-04 17:22:00,
2013-09-04 13:27:00,77.8,33.5,29.44,WNW,283,2.8,6.5,20,-99.99,,,-99.99,WSDL version 342,2013-09-04 17:27:00,
2013-09-04 13:32:00,78.7,34.7,29.44,SSE,164,2.3,6.0,20,-99.99,,,-99.99,WSDL version 342,2013-09-04 17:32:00,
2013-09-04 13:37:00,79.2,34.7,29.44,West,260,2.4,6.0,20,-99.99,,,-99.99,WSDL version 342,2013-09-04 17:37:00,
2013-09-04 13:42:00,79.6,35.1,29.44,West,262,1.8,5.4,20,-99.99,,,-99.99,WSDL version 342,2013-09-04 17:42:00,
2013-09-04 13:47:00,79.5,33.4,29.44,NNW,328,3.4,5.6,17,-99.99,,,-99.99,WSDL version 342,2013-09-04 17:47:00,
2013-09-04 13:52:00,79.7,35.2,29.44,East,90,1.4,6.5,20,-99.99,,,-99.99,WSDL version 342,2013-09-04 17:52:00,
2013-09-04 13:57:00,80.5,35.1,29.44,WNW,283,2.8,6.5,19,-99.99,,,-99.99,WSDL version 342,2013-09-04 17:57:00,
2013-09-04 14:02:00,80.7,35.1,29.44,WNW,296,3.5,6.3,19,-99.99,,,-99.99,WSDL version 342,2013-09-04 18:02:00,
2013-09-04 14:07:00,81.4,34.1,29.44,SSW,199,1.3,6.3,17,-99.99,,,-99.99,WSDL version 342,2013-09-04 18:07:00,
2013-09-04 14:12:00,82.2,33.1,29.44,West,270,2.1,3.8,17,-99.99,,,-99.99,WSDL version 342,2013-09-04 18:12:00,
2013-09-04 14:17:00,82.7,31.2,29.44,WNW,296,1.4,5.4,16,-99.99,,,-99.99,WSDL version 342,2013-09-04 18:17:00,
2013-09-04 14:22:00,83.2,31.1,29.44,SE,125,2.0,5.4,14,-99.99,,,-99.99,WSDL version 342,2013-09-04 18:22:00,
2013-09-04 14:27:00,83.3,29.2,29.44,West,264,3.1,7.8,14,-99.99,,,-99.99,WSDL version 342,2013-09-04 18:27:00,
2013-09-04 14:32:00,84.2,30.2,29.44,West,260,2.6,7.8,16,-99.99,,,-99.99,WSDL version 342,2013-09-04 18:32:00,
2013-09-04 14:37:00,84.0,29.1,29.44,SSW,212,4.3,10.7,14,-99.99,,,-99.99,WSDL version 342,2013-09-04 18:37:00,
2013-09-04 14:43:00,83.9,29.6,29.41,SSW,212,3.3,10.7,14,-99.99,,,-99.99,WSDL version 342,2013-09-04 18:43:00,
2013-09-04 14:48:00,83.9,29.2,29.41,SSW,196,3.0,6.3,13,-99.99,,,-99.99,WSDL version 342,2013-09-04 18:48:00,
2013-09-04 14:53:00,84.5,28.3,29.41,NW,309,3.4,6.3,13,-99.99,,,-99.99,WSDL version 342,2013-09-04 18:53:00,
2013-09-04 14:58:00,84.6,28.4,29.41,WSW,244,3.2,6.0,13,-99.99,,,-99.99,WSDL version 342,2013-09-04 18:58:00,
2013-09-04 15:03:00,85.3,28.9,29.41,NNE,13,2.3,6.0,13,-99.99,,,-99.99,WSDL version 342,2013-09-04 19:03:00,
2013-09-04 15:08:00,86.1,29.6,29.41,SSW,203,2.7,4.3,13,-99.99,,,-99.99,WSDL version 342,2013-09-04 19:08:00,
2013-09-04 15:13:00,85.6,29.2,29.41,WSW,258,2.6,4.9,13,-99.99,,,-99.99,WSDL version 342,2013-09-04 19:13:00,
2013-09-04 15:18:00,85.8,29.3,29.41,SSE,149,2.9,5.6,13,-99.99,,,-99.99,WSDL version 342,2013-09-04 19:18:00,
2013-09-04 15:24:00,84.6,28.4,29.41,SSW,203,4.3,8.1,13,-99.99,,,-99.99,WSDL version 342,2013-09-04 19:24:00,
2013-09-04 15:29:00,85.4,29.0,29.38,WNW,300,1.9,8.1,13,-99.99,,,-99.99,WSDL version 342,2013-09-04 19:29:00,
2013-09-04 15:34:00,86.1,29.6,29.38,SSE,148,3.2,7.2,13,-99.99,,,-99.99,WSDL version 342,2013-09-04 19:34:00,
2013-09-04 15:39:00,85.2,28.8,29.38,NW,308,2.0,7.2,13,-99.99,,,-99.99,WSDL version 342,2013-09-04 19:39:00,
2013-09-04 15:44:00,85.6,29.2,29.38,WSW,244,2.8,5.4,13,-99.99,,,-99.99,WSDL version 342,2013-09-04 19:44:00,
2013-09-04 15:49:00,85.6,29.1,29.38,NNW,344,3.3,6.3,13,-99.99,,,-99.99,WSDL version 342,2013-09-04 19:49:00,
2013-09-04 15:54:00,85.7,29.3,29.38,SSE,158,2.8,6.3,13,-99.99,,,-99.99,WSDL version 342,2013-09-04 19:54:00,
2013-09-04 15:59:00,85.7,29.3,29.38,South,188,3.1,7.6,13,-99.99,,,-99.99,WSDL version 342,2013-09-04 19:59:00,
2013-09-04 16:04:00,84.6,28.4,29.38,South,186,3.7,7.6,13,-99.99,,,-99.99,WSDL version 342,2013-09-04 20:04:00,
2013-09-04 16:09:00,84.4,28.3,29.38,West,264,2.3,6.3,13,-99.99,,,-99.99,WSDL version 342,2013-09-04 20:09:00,
2013-09-04 16:14:00,85.6,29.2,29.38,SSW,210,1.1,6.3,13,-99.99,,,-99.99,WSDL version 342,2013-09-04 20:14:00,
2013-09-04 16:19:00,85.4,29.0,29.38,South,177,3.0,6.3,13,-99.99,,,-99.99,WSDL version 342,2013-09-04 20:19:00,
2013-09-04 16:24:00,85.2,28.8,29.38,SSE,167,3.0,6.3,13,-99.99,,,-99.99,WSDL version 342,2013-09-04 20:24:00,
2013-09-04 16:29:00,84.9,28.6,29.38,South,169,2.4,5.4,13,-99.99,,,-99.99,WSDL version 342,2013-09-04 20:29:00,
2013-09-04 16:34:00,84.9,28.6,29.38,SSE,167,2.5,6.0,13,-99.99,,,-99.99,WSDL version 342,2013-09-04 20:34:00,
2013-09-04 16:39:00,84.3,28.2,29.38,NW,323,2.5,6.0,13,-99.99,,,-99.99,WSDL version 342,2013-09-04 20:39:00,
2013-09-04 16:44:00,85.0,28.7,29.38,WSW,242,2.7,6.0,13,-99.99,,,-99.99,WSDL version 342,2013-09-04 20:44:00,
2013-09-04 16:49:00,84.9,28.6,29.38,SE,141,2.9,5.8,13,-99.99,,,-99.99,WSDL version 342,2013-09-04 20:49:00,
2013-09-04 16:54:00,84.1,28.9,29.38,SW,230,3.1,5.8,14,-99.99,,,-99.99,WSDL version 342,2013-09-04 20:54:00,
2013-09-04 16:59:00,83.2,29.1,29.38,West,276,0.8,5.8,14,-99.99,,,-99.99,WSDL version 342,2013-09-04 20:59:00,
2013-09-04 17:04:00,82.4,28.5,29.38,SSE,148,1.8,5.8,14,-99.99,,,-99.99,WSDL version 342,2013-09-04 21:04:00,
2013-09-04 17:09:00,82.2,29.1,29.38,SW,225,2.3,3.6,14,-99.99,,,-99.99,WSDL version 342,2013-09-04 21:09:00,
2013-09-04 17:14:00,80.9,32.1,29.38,South,170,2.3,4.0,17,-99.99,,,-99.99,WSDL version 342,2013-09-04 21:14:00,
2013-09-04 17:19:00,80.7,31.9,29.38,SSE,158,3.5,6.0,17,-99.99,,,-99.99,WSDL version 342,2013-09-04 21:19:00,
2013-09-04 17:25:00,80.7,31.9,29.38,SW,225,3.8,6.3,17,-99.99,,,-99.99,WSDL version 342,2013-09-04 21:25:00,
2013-09-04 17:30:00,80.6,31.8,29.38,SW,225,1.9,6.3,17,-99.99,,,-99.99,WSDL version 342,2013-09-04 21:30:00,
2013-09-04 17:35:00,79.7,31.1,29.38,West,273,1.7,4.9,17,-99.99,,,-99.99,WSDL version 342,2013-09-04 21:35:00,
2013-09-04 17:40:00,79.7,34.2,29.38,South,170,2.1,5.4,20,-99.99,,,-99.99,WSDL version 342,2013-09-04 21:40:00,
2013-09-04 17:45:00,80.1,35.5,29.38,NNW,338,1.6,5.4,20,-99.99,,,-99.99,WSDL version 342,2013-09-04 21:45:00,
2013-09-04 17:50:00,80.5,32.4,29.38,SSW,203,2.4,4.0,19,-99.99,,,-99.99,WSDL version 342,2013-09-04 21:50:00,
2013-09-04 17:55:00,80.5,32.8,29.35,SW,231,2.3,4.0,17,-99.99,,,-99.99,WSDL version 342,2013-09-04 21:55:00,
2013-09-04 18:00:00,80.6,32.5,29.35,NNW,334,1.1,3.4,17,-99.99,,,-99.99,WSDL version 342,2013-09-04 22:00:00,
2013-09-04 18:05:00,80.6,31.8,29.35,SE,145,1.9,3.4,17,-99.99,,,-99.99,WSDL version 342,2013-09-04 22:05:00,
2013-09-04 18:10:00,80.1,34.1,29.35,NE,45,1.6,3.4,20,-99.99,,,-99.99,WSDL version 342,2013-09-04 22:10:00,
2013-09-04 18:15:00,79.2,34.7,29.35,WSW,248,1.6,4.7,20,-99.99,,,-99.99,WSDL version 342,2013-09-04 22:15:00,
2013-09-04 18:20:00,77.9,33.7,29.35,SSW,200,2.5,4.7,20,-99.99,,,-99.99,WSDL version 342,2013-09-04 22:20:00,
2013-09-04 18:25:00,77.0,33.3,29.38,SW,236,1.3,4.0,21,-99.99,,,-99.99,WSDL version 342,2013-09-04 22:25:00,
2013-09-04 18:30:00,76.2,33.5,29.38,SW,215,1.3,3.6,21,-99.99,,,-99.99,WSDL version 342,2013-09-04 22:30:00,
2013-09-04 18:35:00,75.7,33.3,29.38,SSW,206,1.6,3.6,22,-99.99,,,-99.99,WSDL version 342,2013-09-04 22:35:00,
2013-09-04 18:40:00,75.0,33.6,29.38,SW,231,0.1,3.4,22,-99.99,,,-99.99,WSDL version 342,2013-09-04 22:40:00,
2013-09-04 18:45:00,74.4,34.2,29.38,SSW,203,1.4,3.4,23,-99.99,,,-99.99,WSDL version 342,2013-09-04 22:45:00,
2013-09-04 18:50:00,73.9,34.1,29.38,South,188,0.0,3.4,23,-99.99,,,-99.99,WSDL version 342,2013-09-04 22:50:00,
2013-09-04 18:55:00,73.4,34.7,29.38,ESE,116,0.4,2.0,25,-99.99,,,-99.99,WSDL version 342,2013-09-04 22:55:00,
2013-09-04 19:00:00,73.0,34.8,29.38,SSW,197,1.6,3.4,25,-99.99,,,-99.99,WSDL version 342,2013-09-04 23:00:00,
2013-09-04 19:05:00,72.5,35.5,29.38,West,270,0.3,3.4,26,-99.99,,,-99.99,WSDL version 342,2013-09-04 23:05:00,
2013-09-04 19:10:00,72.1,36.1,29.38,SW,216,0.0,2.7,26,-99.99,,,-99.99,WSDL version 342,2013-09-04 23:10:00,
2013-09-04 19:15:00,71.7,36.3,29.38,South,183,1.2,3.4,28,-99.99,,,-99.99,WSDL version 342,2013-09-04 23:15:00,
2013-09-04 19:20:00,71.3,37.4,29.38,SE,135,0.0,3.4,29,-99.99,,,-99.99,WSDL version 342,2013-09-04 23:20:00,
2013-09-04 19:25:00,71.0,38.2,29.38,ESE,116,0.9,2.7,30,-99.99,,,-99.99,WSDL version 342,2013-09-04 23:25:00,
2013-09-04 19:30:00,70.5,39.1,29.38,SE,146,1.0,3.1,32,-99.99,,,-99.99,WSDL version 342,2013-09-04 23:30:00,
2013-09-04 19:35:00,70.3,39.1,29.38,SW,229,0.9,3.1,32,-99.99,,,-99.99,WSDL version 342,2013-09-04 23:35:00,
2013-09-04 19:40:00,69.9,39.0,29.38,WSW,244,1.9,3.8,33,-99.99,,,-99.99,WSDL version 342,2013-09-04 23:40:00,
2013-09-04 19:45:00,69.7,39.0,29.38,SSW,203,1.0,3.8,33,-99.99,,,-99.99,WSDL version 342,2013-09-04 23:45:00,
2013-09-04 19:50:00,69.4,39.1,29.38,SSW,199,1.9,3.4,33,-99.99,,,-99.99,WSDL version 342,2013-09-04 23:50:00,
2013-09-04 19:56:00,69.1,38.8,29.38,West,276,0.6,3.4,33,-99.99,,,-99.99,WSDL version 342,2013-09-04 23:56:00,
2013-09-04 20:01:00,68.9,39.0,29.38,SW,218,0.4,3.1,34,-99.99,,,-99.99,WSDL version 342,2013-09-05 00:01:00,
2013-09-04 20:06:00,68.6,39.2,29.38,WSW,241,1.9,3.6,34,-99.99,,,-99.99,WSDL version 342,2013-09-05 00:06:00,
2013-09-04 20:11:00,68.5,39.0,29.35,West,259,0.2,3.6,34,-99.99,,,-99.99,WSDL version 342,2013-09-05 00:11:00,
2013-09-04 20:16:00,68.1,39.3,29.35,WSW,245,1.5,3.1,35,-99.99,,,-99.99,WSDL version 342,2013-09-05 00:16:00,
2013-09-04 20:21:00,68.0,39.3,29.35,SSW,203,0.7,3.1,35,-99.99,,,-99.99,WSDL version 342,2013-09-05 00:21:00,
2013-09-04 20:26:00,67.8,39.5,29.38,WNW,289,0.9,2.7,36,-99.99,,,-99.99,WSDL version 342,2013-09-05 00:26:00,
2013-09-04 20:31:00,67.6,39.7,29.38,SW,225,0.0,2.7,36,-99.99,,,-99.99,WSDL version 342,2013-09-05 00:31:00,
2013-09-04 20:37:00,67.4,39.5,29.38,NW,315,0.0,2.0,36,-99.99,,,-99.99,WSDL version 342,2013-09-05 00:37:00,
2013-09-04 20:42:00,67.0,39.6,29.38,West,270,0.0,1.1,37,-99.99,,,-99.99,WSDL version 342,2013-09-05 00:42:00,
2013-09-04 20:47:00,66.9,39.8,29.38,WSW,248,1.2,2.9,37,-99.99,,,-99.99,WSDL version 342,2013-09-05 00:47:00,
2013-09-04 20:52:00,66.9,39.8,29.38,East,90,0.0,2.9,37,-99.99,,,-99.99,WSDL version 342,2013-09-05 00:52:00,
2013-09-04 20:57:00,66.9,39.8,29.38,SSW,203,0.0,2.0,37,-99.99,,,-99.99,WSDL version 342,2013-09-05 00:57:00,
2013-09-04 21:02:00,66.9,39.8,29.38,SSE,167,0.0,1.6,37,-99.99,,,-99.99,WSDL version 342,2013-09-05 01:02:00,
2013-09-04 21:07:00,66.9,39.8,29.38,West,266,1.0,1.6,37,-99.99,,,-99.99,WSDL version 342,2013-09-05 01:07:00,
2013-09-04 21:12:00,66.8,39.7,29.41,NW,326,0.4,2.0,37,-99.99,,,-99.99,WSDL version 342,2013-09-05 01:12:00,
2013-09-04 21:17:00,66.7,39.9,29.41,SSE,168,1.0,2.0,38,-99.99,,,-99.99,WSDL version 342,2013-09-05 01:17:00,
2013-09-04 21:22:00,66.7,39.9,29.41,WSW,241,1.2,3.1,38,-99.99,,,-99.99,WSDL version 342,2013-09-05 01:22:00,
2013-09-04 21:27:00,66.7,40.2,29.41,SW,215,1.2,3.1,38,-99.99,,,-99.99,WSDL version 342,2013-09-05 01:27:00,
2013-09-04 21:32:00,66.5,40.2,29.41,WSW,250,0.7,2.9,38,-99.99,,,-99.99,WSDL version 342,2013-09-05 01:32:00,
2013-09-04 21:38:00,66.3,40.0,29.41,NNW,338,0.0,2.0,38,-99.99,,,-99.99,WSDL version 342,2013-09-05 01:38:00,
2013-09-04 21:43:00,66.0,40.4,29.41,SW,222,0.0,2.0,39,-99.99,,,-99.99,WSDL version 342,2013-09-05 01:43:00,
2013-09-04 21:49:00,65.8,41.2,29.41,SW,231,0.2,2.0,40,-99.99,,,-99.99,WSDL version 342,2013-09-05 01:49:00,
2013-09-04 21:54:00,65.7,40.8,29.41,SSW,203,0.4,2.0,40,-99.99,,,-99.99,WSDL version 342,2013-09-05 01:54:00,
2013-09-04 21:59:00,65.5,41.4,29.41,SSW,203,0.0,1.6,42,-99.99,,,-99.99,WSDL version 342,2013-09-05 01:59:00,
2013-09-04 22:04:00,65.0,42.0,29.41,SSW,203,0.0,0.9,43,-99.99,,,-99.99,WSDL version 342,2013-09-05 02:04:00,
2013-09-04 22:09:00,64.7,41.7,29.41,SW,225,0.0,1.1,43,-99.99,,,-99.99,WSDL version 342,2013-09-05 02:09:00,
2013-09-04 22:14:00,64.4,42.2,29.41,SW,225,0.0,1.1,45,-99.99,,,-99.99,WSDL version 342,2013-09-05 02:14:00,
2013-09-04 22:19:00,64.2,42.6,29.41,WSW,248,0.0,1.1,46,-99.99,,,-99.99,WSDL version 342,2013-09-05 02:19:00,
2013-09-04 22:24:00,63.7,42.7,29.44,WSW,248,0.0,1.1,47,-99.99,,,-99.99,WSDL version 342,2013-09-05 02:24:00,
2013-09-04 22:29:00,63.4,42.9,29.44,WSW,248,0.0,1.1,47,-99.99,,,-99.99,WSDL version 342,2013-09-05 02:29:00,
2013-09-04 22:34:00,63.1,43.1,29.44,NNW,338,0.0,1.1,48,-99.99,,,-99.99,WSDL version 342,2013-09-05 02:34:00,
2013-09-04 22:39:00,62.9,43.3,29.44,NW,315,0.0,1.1,49,-99.99,,,-99.99,WSDL version 342,2013-09-05 02:39:00,
2013-09-04 22:44:00,62.8,43.7,29.44,NW,315,0.0,0.0,50,-99.99,,,-99.99,WSDL version 342,2013-09-05 02:44:00,
2013-09-04 22:49:00,62.5,44.3,29.44,West,270,0.0,0.9,51,-99.99,,,-99.99,WSDL version 342,2013-09-05 02:49:00,
2013-09-04 22:54:00,62.4,44.6,29.44,WSW,254,0.4,2.9,52,-99.99,,,-99.99,WSDL version 342,2013-09-05 02:54:00,
2013-09-04 22:59:00,62.6,44.5,29.44,SW,222,0.6,2.9,52,-99.99,,,-99.99,WSDL version 342,2013-09-05 02:59:00,
2013-09-04 23:04:00,62.5,45.3,29.44,West,270,0.1,1.6,54,-99.99,,,-99.99,WSDL version 342,2013-09-05 03:04:00,
2013-09-04 23:09:00,62.2,45.2,29.44,WSW,257,0.0,2.0,54,-99.99,,,-99.99,WSDL version 342,2013-09-05 03:09:00,
2013-09-04 23:14:00,62.2,45.0,29.44,SW,235,0.0,2.0,54,-99.99,,,-99.99,WSDL version 342,2013-09-05 03:14:00,
2013-09-04 23:19:00,62.2,45.4,29.44,West,279,0.4,1.3,55,-99.99,,,-99.99,WSDL version 342,2013-09-05 03:19:00,
2013-09-04 23:24:00,61.9,45.9,29.41,West,270,0.0,1.3,56,-99.99,,,-99.99,WSDL version 342,2013-09-05 03:24:00,
2013-09-04 23:29:00,61.8,46.3,29.41,WNW,293,0.0,0.9,57,-99.99,,,-99.99,WSDL version 342,2013-09-05 03:29:00,
2013-09-04 23:34:00,61.7,46.4,29.41,WSW,248,0.0,1.1,58,-99.99,,,-99.99,WSDL version 342,2013-09-05 03:34:00,
2013-09-04 23:39:00,61.5,46.9,29.41,WSW,248,0.0,1.1,59,-99.99,,,-99.99,WSDL version 342,2013-09-05 03:39:00,
2013-09-04 23:44:00,61.3,46.8,29.41,WSW,248,0.0,0.0,59,-99.99,,,-99.99,WSDL version 342,2013-09-05 03:44:00,
2013-09-04 23:49:00,61.2,47.2,29.41,WSW,248,0.0,0.0,60,-99.99,,,-99.99,WSDL version 342,2013-09-05 03:49:00,
2013-09-04 23:54:00,61.0,47.3,29.41,WSW,248,0.0,0.0,61,-99.99,,,-99.99,WSDL version 342,2013-09-05 03:54:00,
2013-09-04 23:59:00,60.8,47.6,29.41,WSW,248,0.0,0.0,62,-99.99,,,-99.99,WSDL version 342,2013-09-05 03:59:00,